• Join FlightAware (Why Join?)
  • Login
  • US Flag 
10:02AM EDT


 

Airport Tracker/Info


-or-


 

Live Flight TrackerFlight Track Log ✈ UAL569 ✈ 14-Jun-2013 ✈ KEWR - KORD

Flight Track Log - Related Links

Times and Time Zones

All times are in EDT time to prevent confusion due to time zone crossing. See the UAL569 flight status page for this flight to view local times or setup timezone preferences in your user account.

Time Position Orientation Groundspeed Altitude Reporting Facility
EDT Latitude Longitude Course Direction KTS MPH feet Rate Location/Type
06:22AM 40.7689 -74.1769 304° West 275 316 4,100  Level New York Center
06:23AM 40.9123 -74.4330 319° Northwest  Level FlightAware Approximate
06:23AM 40.8000 -74.2333 306° West 277 319 4,000  Level New York TRACON
06:24AM 40.9914 -74.5235 319° Northwest  Level FlightAware Approximate
06:24AM 40.8500 -74.3000 315° West 255 293 7,400  Level New York TRACON
06:25AM 41.0669 -74.6192 316° Northwest  Level FlightAware Approximate
06:26AM 41.1361 -74.7069 298° West  Level FlightAware Approximate
06:26AM 40.9725 -74.4703 314° West 311 358 11,700  Level New York Center
06:27AM 41.1885 -74.8269 304° West  Level FlightAware Approximate
06:27AM 41.0522 -74.5819 313° West 359 413 13,400  Level New York Center
06:28AM 41.2402 -74.9471 304° West  Level FlightAware Approximate
06:28AM 41.1242 -74.6767 315° West 391 450 15,600  Level New York Center
06:29AM 41.1883 -74.8128 302° West 404 465 18,400 1,980 Climbing New York Center
06:30AM 41.2383 -74.9289 300° West 409 471 19,500 960 Climbing New York Center
06:31AM 41.2978 -75.0733 299° West 423 487 20,400 1,140 Climbing New York Center
06:32AM 41.3633 -75.2186 301° West 444 511 21,800 1,200 Climbing New York Center
06:33AM 41.4264 -75.3667 300° West 455 524 22,900 1,020 Climbing New York Center
06:34AM 41.4869 -75.5203 298° West 465 535 23,900 840 Climbing New York Center
06:35AM 41.5464 -75.6964 294° West 471 542 24,600 1,140 Climbing New York Center
06:36AM 41.5836 -75.8517 288° West 476 548 26,300 1,320 Climbing New York Center
06:37AM 41.6283 -76.0189 290° West 476 548 27,300 1,080 Climbing New York Center
06:38AM 41.6753 -76.1808 291° West 481 554 28,500 1,260 Climbing New York Center
06:39AM 41.7253 -76.3600 291° West 476 548 29,900 1,320 Climbing New York Center
06:40AM 41.7661 -76.5053 291° West 476 548 31,100 1,080 Climbing New York Center
06:43AM 41.8761 -76.9072 290° West 480 552 33,600 1,080 Climbing Cleveland Center
06:44AM 41.9186 -77.0642 290° West 469 540 34,900 900 Climbing Cleveland Center
06:45AM 41.9608 -77.2208 290° West 458 527 35,400 540 Climbing Cleveland Center
06:46AM 42.0050 -77.3836 290° West 458 527 36,000 300 Climbing Cleveland Center
06:47AM 42.0469 -77.5436 289° West 463 533 36,000  Level Cleveland Center
06:48AM 42.0886 -77.7039 289° West 458 527 36,000  Level Cleveland Center
06:49AM 42.1322 -77.8672 290° West 458 527 36,000  Level Cleveland Center
06:50AM 42.1736 -78.0308 289° West 458 527 36,000  Level Cleveland Center
06:51AM 42.2164 -78.1889 290° West 458 527 36,000  Level Cleveland Center
06:52AM 42.2594 -78.3528 290° West 464 534 36,000  Level Cleveland Center
06:53AM 42.3000 -78.5114 289° West 459 528 36,000  Level Cleveland Center
06:54AM 42.3403 -78.6731 289° West 459 528 36,000  Level Cleveland Center
06:55AM 42.3825 -78.8403 289° West 465 535 36,000  Level Cleveland Center
06:56AM 42.4244 -79.0025 289° West 465 535 36,000  Level Cleveland Center
06:57AM 42.4661 -79.1647 289° West 459 528 36,000  Level Cleveland Center
06:58AM 42.4950 -79.3331 283° West 459 528 36,000  Level Cleveland Center
06:59AM 42.5011 -79.4989 273° West 454 522 36,000  Level Cleveland Center
07:00AM 42.5108 -79.6678 275° West 449 517 36,000  Level Cleveland Center
07:01AM 42.5244 -79.8394 276° West 449 517 36,000  Level Cleveland Center
07:02AM 42.5256 -80.0281 271° West 449 517 36,000  Level Cleveland Center
07:03AM 42.5325 -80.1944 273° West 455 524 36,000  Level Cleveland Center
07:04AM 42.5414 -80.3692 274° West 460 529 36,000  Level Cleveland Center
07:05AM 42.5497 -80.5381 274° West 460 529 36,000  Level Cleveland Center
07:06AM 42.5561 -80.7072 273° West 460 529 36,000  Level Cleveland Center
07:07AM 42.5600 -80.8708 272° West 454 522 36,000  Level Cleveland Center
07:08AM 42.5678 -81.0400 274° West 454 522 36,000  Level Cleveland Center
07:09AM 42.5711 -81.2006 272° West 440 506 36,000  Level Cleveland Center
07:10AM 42.5764 -81.3669 273° West 445 512 36,000  Level Cleveland Center
07:11AM 42.5919 -81.5053 279° West 434 499 36,000  Level Cleveland Center
07:12AM 42.6197 -81.6667 283° West 434 499 36,000  Level Cleveland Center
07:13AM 42.6494 -81.8308 284° West 427 491 36,000  Level Cleveland Center
07:14AM 42.6747 -81.9867 282° West 421 484 36,000  Level Cleveland Center
07:15AM 42.6956 -82.1397 281° West 416 479 36,000  Level Cleveland Center
07:16AM 42.7100 -82.2983 277° West 416 479 36,000  Level Cleveland Center
07:17AM 42.7242 -82.4569 277° West 426 490 36,000  Level Cleveland Center
07:18AM 42.7383 -82.6158 277° West 426 490 36,000  Level Cleveland Center
07:19AM 42.7500 -82.7717 276° West 426 490 36,000  Level Cleveland Center
07:20AM 42.7636 -82.9306 277° West 426 490 36,000  Level Cleveland Center
07:21AM 42.7747 -83.0922 275° West 426 490 36,000  Level Cleveland Center
07:22AM 42.7878 -83.2511 276° West 426 490 36,000  Level Cleveland Center
07:23AM 42.8008 -83.4072 277° West 426 490 36,000 -600 Level Cleveland Center
07:24AM 42.8114 -83.5664 275° West 426 490 34,900 -1,140 Descending Cleveland Center
07:25AM 42.8239 -83.7256 276° West 426 490 33,800 -1,020 Descending Cleveland Center
07:26AM 42.8342 -83.8733 275° West 415 478 32,900 -900 Descending Cleveland Center
07:27AM 42.8444 -84.0211 275° West 410 472 32,000 -900 Descending Cleveland Center
07:28AM 42.8547 -84.1661 276° West 403 464 31,100 -960 Descending Cleveland Center
07:29AM 42.8644 -84.3197 275° West 403 464 30,100 -780 Descending Cleveland Center
07:29AM 42.8706 -84.3817 278° West 405 466 30,000 -120 Descending Chicago Center
07:30AM 42.8814 -84.5353 276° West 409 471 30,000  Level Chicago Center
07:31AM 42.8733 -84.6922 266° West 417 480 30,000  Level Chicago Center
07:32AM 42.8564 -84.8506 262° West 421 484 30,000  Level Chicago Center
07:33AM 42.8386 -85.0189 262° West 444 511 30,000 -60 Level Chicago Center
07:34AM 42.8214 -85.1842 262° West 444 511 29,900 -780 Descending Chicago Center
07:35AM 42.7992 -85.3831 261° West 444 511 28,500 -1,380 Descending Chicago Center
07:36AM 42.7772 -85.5508 260° West 446 513 27,100 -1,440 Descending Chicago Center
07:38AM 42.7469 -85.7147 256° West 447 514 25,600 -1,500 Descending Chicago Center
07:39AM 42.7181 -85.8739 256° West 435 501 24,100 -1,560 Descending Chicago Center
07:40AM 42.6897 -86.0292 256° West 424 488 22,500 -1,620 Descending Chicago Center
07:41AM 42.6619 -86.1836 256° West 421 484 20,800 -1,440 Descending Chicago Center
07:42AM 42.6336 -86.3319 255° West 409 471 19,600 -1,560 Descending Chicago Center
07:43AM 42.6067 -86.4736 256° West 392 451 17,700 -1,860 Descending Chicago Center
07:44AM 42.5800 -86.6158 256° West 388 447 15,800 -1,920 Descending Chicago Center
07:45AM 42.5536 -86.7597 256° West 392 451 13,800 -1,800 Descending Chicago Center
07:46AM 42.5103 -86.9161 249° West 374 430 12,100 -1,620 Descending Chicago Center
07:47AM 42.4753 -87.0444 250° West 365 420 10,600 -1,080 Descending Chicago Center
07:48AM 42.4383 -87.1697 248° West 362 417 10,000 -300 Descending Chicago Center
07:49AM 42.4036 -87.2964 250° West 358 412 10,000  Level Chicago Center
07:50AM 42.3689 -87.4244 250° West 360 414 10,000  Level Chicago Center
07:51AM 42.3281 -87.5444 245° Southwest 361 415 10,000  Level Chicago Center
07:52AM 42.2494 -87.6286 218° Southwest 365 420 10,000 -540 Level Chicago Center
07:53AM 42.1661 -87.7175 218° Southwest 329 379 9,000 -840 Descending Chicago Center
07:54AM 42.1069 -87.7794 218° Southwest 286 329 8,300 -720 Descending Chicago Center
07:55AM 42.0919 -87.8503 254° West 220 253 7,600 -840 Descending Chicago Center
07:55AM 42.1000 -87.8833 288° West 205 236 7,200 -420 Descending Chicago TRACON
07:56AM 42.1000 -87.9667 270° West 209 241 7,100 -120 Descending Chicago TRACON
07:57AM 42.1000 -88.0333 270° West 202 232 7,000 -840 Descending Chicago TRACON
07:58AM 42.0833 -88.1000 251° West 203 234 5,600 -1,380 Descending Chicago TRACON
07:59AM 42.0903 -88.1678 278° West 200 230 4,500 -1,140 Descending Chicago Center
08:00AM 42.0594 -88.2175 230° Southwest 205 236 3,500 -780 Descending Chicago Center
08:01AM 42.0175 -88.2003 163° South 171 197 3,000 -240 Descending Chicago Center
08:02AM 41.9878 -88.1550 131° Southeast 161 185 3,100  Climbing Chicago Center
08:03AM 41.9833 -88.1000 96° East 138 159 3,100  Level Chicago TRACON